createdAt,value
2023-04-20T00:00:00.220Z,89
2023-04-20T00:04:00.371Z,89
2023-04-20T00:08:00.235Z,89
2023-04-20T00:12:00.244Z,89
2023-04-20T00:16:00.222Z,89
2023-04-20T00:20:00.248Z,90
2023-04-20T00:24:00.219Z,90
2023-04-20T00:28:00.245Z,90
2023-04-20T00:32:00.228Z,90
2023-04-20T00:36:00.209Z,90
2023-04-20T00:40:00.250Z,90
2023-04-20T00:44:00.224Z,90
2023-04-20T00:48:00.283Z,90
2023-04-20T00:52:00.230Z,90
2023-04-20T00:56:00.252Z,90
2023-04-20T01:00:00.239Z,90
2023-04-20T01:04:00.364Z,90
2023-04-20T01:08:00.461Z,90
2023-04-20T01:12:00.221Z,90
2023-04-20T01:16:00.519Z,90
2023-04-20T01:20:00.250Z,90
2023-04-20T01:24:00.226Z,90
2023-04-20T01:28:00.216Z,90
2023-04-20T01:32:00.215Z,90
2023-04-20T01:36:00.289Z,90
2023-04-20T01:40:01.294Z,90
2023-04-20T01:44:00.230Z,90
2023-04-20T01:48:00.282Z,90
2023-04-20T01:52:00.245Z,90
2023-04-20T01:56:00.225Z,90
2023-04-20T02:00:00.234Z,90
2023-04-20T02:04:00.393Z,90
2023-04-20T02:08:00.223Z,90
2023-04-20T02:12:00.260Z,90
2023-04-20T02:16:00.219Z,90
2023-04-20T02:20:00.201Z,90
2023-04-20T02:24:00.214Z,90
2023-04-20T02:28:00.214Z,90
2023-04-20T02:32:00.196Z,90
2023-04-20T02:36:00.241Z,90
2023-04-20T02:40:00.212Z,90
2023-04-20T02:44:00.217Z,90
2023-04-20T02:48:00.298Z,90
2023-04-20T02:52:00.254Z,90
2023-04-20T02:56:00.223Z,90
2023-04-20T03:00:00.217Z,90
2023-04-20T03:04:00.469Z,90
2023-04-20T03:08:00.222Z,90
2023-04-20T03:12:00.237Z,90
2023-04-20T03:16:00.267Z,90
2023-04-20T03:20:00.230Z,90
2023-04-20T03:24:00.248Z,90
2023-04-20T03:28:00.235Z,90
2023-04-20T03:32:00.264Z,90
2023-04-20T03:36:00.229Z,90
2023-04-20T03:40:00.314Z,90
2023-04-20T03:44:00.227Z,90
2023-04-20T03:48:00.261Z,90
2023-04-20T03:52:00.222Z,90
2023-04-20T03:56:00.235Z,90
2023-04-20T04:00:00.234Z,90
2023-04-20T04:04:00.737Z,90
2023-04-20T04:08:00.216Z,90
2023-04-20T04:12:00.237Z,90
2023-04-20T04:16:00.471Z,91
2023-04-20T04:20:00.279Z,91
2023-04-20T04:24:00.207Z,91
2023-04-20T04:28:00.230Z,91
2023-04-20T04:32:00.230Z,90
2023-04-20T04:36:00.311Z,90
2023-04-20T04:40:00.479Z,90
2023-04-20T04:44:00.234Z,90
2023-04-20T04:48:00.285Z,90
2023-04-20T04:52:00.218Z,90
2023-04-20T04:56:00.214Z,90
2023-04-20T05:00:00.332Z,90
2023-04-20T05:04:00.371Z,90
2023-04-20T05:08:00.213Z,90
2023-04-20T05:12:00.209Z,90
2023-04-20T05:16:00.240Z,90
2023-04-20T05:20:00.218Z,90
2023-04-20T05:24:00.258Z,90
2023-04-20T05:28:00.232Z,90
2023-04-20T05:32:00.253Z,90
2023-04-20T05:36:00.227Z,90
2023-04-20T05:40:00.307Z,90
2023-04-20T05:44:00.229Z,90
2023-04-20T05:48:00.297Z,90
2023-04-20T05:52:00.235Z,90
2023-04-20T05:56:00.229Z,90
2023-04-20T06:00:00.246Z,90
2023-04-20T06:04:00.576Z,90
2023-04-20T06:08:00.250Z,90
2023-04-20T06:12:00.273Z,89
2023-04-20T06:16:00.285Z,89
2023-04-20T06:20:00.247Z,89
2023-04-20T06:24:00.215Z,89
2023-04-20T06:28:00.246Z,89
2023-04-20T06:32:00.253Z,89
2023-04-20T06:36:00.231Z,89
2023-04-20T06:40:00.246Z,89
2023-04-20T06:44:00.226Z,89
2023-04-20T06:48:00.250Z,89
2023-04-20T06:52:00.221Z,89
2023-04-20T06:56:00.269Z,89
2023-04-20T07:00:00.232Z,89
2023-04-20T07:04:00.426Z,89
2023-04-20T07:08:00.238Z,89
2023-04-20T07:12:00.234Z,88
2023-04-20T07:16:00.334Z,88
2023-04-20T07:20:00.272Z,88
2023-04-20T07:24:00.228Z,88
2023-04-20T07:28:00.231Z,88
2023-04-20T07:32:00.281Z,88
2023-04-20T07:36:00.228Z,88
2023-04-20T07:40:00.226Z,88
2023-04-20T07:44:00.218Z,88
2023-04-20T07:48:00.246Z,88
2023-04-20T07:52:12.915Z,88
2023-04-20T07:56:00.230Z,88
2023-04-20T08:00:00.232Z,88
2023-04-20T08:04:00.443Z,87
2023-04-20T08:08:00.219Z,87
2023-04-20T08:12:00.226Z,87
2023-04-20T08:16:00.498Z,86
2023-04-20T08:20:00.213Z,86
2023-04-20T08:24:00.223Z,86
2023-04-20T08:28:00.227Z,85
2023-04-20T08:32:00.248Z,85
2023-04-20T08:36:00.212Z,85
2023-04-20T08:40:00.249Z,85
2023-04-20T08:44:00.213Z,85
2023-04-20T08:48:00.290Z,85
2023-04-20T08:52:00.269Z,85
2023-04-20T08:56:00.241Z,85
2023-04-20T09:00:00.236Z,85
2023-04-20T09:04:00.509Z,85
2023-04-20T09:08:00.214Z,85
2023-04-20T09:12:00.232Z,85
2023-04-20T09:16:00.265Z,85
2023-04-20T09:20:00.280Z,85
2023-04-20T09:24:00.215Z,85
2023-04-20T09:28:00.282Z,85
2023-04-20T09:32:00.326Z,85
2023-04-20T09:36:00.239Z,85
2023-04-20T09:40:00.278Z,84
2023-04-20T09:44:00.247Z,84
2023-04-20T09:48:00.293Z,81
2023-04-20T09:52:00.239Z,81
2023-04-20T09:56:00.225Z,78
2023-04-20T10:00:00.253Z,74
2023-04-20T10:04:00.432Z,75
2023-04-20T10:08:00.223Z,71
2023-04-20T10:12:00.215Z,69
2023-04-20T10:16:00.252Z,72
2023-04-20T10:20:00.227Z,69
2023-04-20T10:24:00.220Z,70
2023-04-20T10:28:00.226Z,68
2023-04-20T10:32:00.248Z,67
2023-04-20T10:36:00.219Z,68
2023-04-20T10:40:00.230Z,66
2023-04-20T10:44:00.204Z,65
2023-04-20T10:48:00.256Z,63
2023-04-20T10:52:00.232Z,62
2023-04-20T10:56:00.262Z,64
2023-04-20T11:00:00.251Z,64
2023-04-20T11:04:00.306Z,65
2023-04-20T11:08:00.280Z,66
2023-04-20T11:12:00.228Z,67
2023-04-20T11:16:00.263Z,66
2023-04-20T11:20:00.279Z,67
2023-04-20T11:24:00.215Z,68
2023-04-20T11:28:00.237Z,67
2023-04-20T11:32:00.330Z,68
2023-04-20T11:36:00.219Z,66
2023-04-20T11:40:00.253Z,66
2023-04-20T11:44:00.223Z,67
2023-04-20T11:48:00.293Z,67
2023-04-20T11:52:00.224Z,67
2023-04-20T11:56:00.230Z,66
2023-04-20T12:00:00.221Z,66
2023-04-20T12:04:00.572Z,64
2023-04-20T12:08:00.196Z,63
2023-04-20T12:12:00.239Z,64
2023-04-20T12:16:00.262Z,64
2023-04-20T12:20:00.249Z,62
2023-04-20T12:24:00.254Z,57
2023-04-20T12:28:00.240Z,57
2023-04-20T12:32:00.469Z,55
2023-04-20T12:36:00.237Z,56
2023-04-20T12:40:00.301Z,54
2023-04-20T12:44:01.531Z,52
2023-04-20T12:48:00.733Z,54
2023-04-20T12:52:00.249Z,54
2023-04-20T12:56:01.456Z,53
2023-04-20T13:00:00.232Z,53
2023-04-20T13:04:00.487Z,53
2023-04-20T13:08:00.236Z,53
2023-04-20T13:12:00.240Z,53
2023-04-20T13:16:00.273Z,56
2023-04-20T13:20:00.215Z,56
2023-04-20T13:24:00.224Z,57
2023-04-20T13:28:00.215Z,56
2023-04-20T13:32:00.280Z,57
2023-04-20T13:36:00.208Z,57
2023-04-20T13:40:00.226Z,56
2023-04-20T13:44:00.216Z,57
2023-04-20T13:48:00.268Z,55
2023-04-20T13:52:00.252Z,54
2023-04-20T13:56:00.240Z,53
2023-04-20T14:00:00.240Z,54
2023-04-20T14:04:00.577Z,55
2023-04-20T14:08:00.240Z,56
2023-04-20T14:12:00.213Z,58
2023-04-20T14:16:00.327Z,58
2023-04-20T14:20:00.317Z,57
2023-04-20T14:24:00.255Z,58
2023-04-20T14:28:00.229Z,58
2023-04-20T14:32:00.339Z,58
2023-04-20T14:36:00.269Z,59
2023-04-20T14:40:00.251Z,57
2023-04-20T14:44:00.251Z,57
2023-04-20T14:48:00.296Z,55
2023-04-20T14:52:00.232Z,54
2023-04-20T14:56:00.240Z,51
2023-04-20T15:00:00.214Z,54
2023-04-20T15:04:00.363Z,53
2023-04-20T15:08:00.225Z,56
2023-04-20T15:12:00.265Z,55
2023-04-20T15:16:00.286Z,56
2023-04-20T15:20:00.256Z,56
2023-04-20T15:24:00.239Z,56
2023-04-20T15:28:00.233Z,56
2023-04-20T15:32:00.259Z,57
2023-04-20T15:36:00.234Z,56
2023-04-20T15:40:00.291Z,56
2023-04-20T15:44:00.244Z,56
2023-04-20T15:48:00.279Z,56
2023-04-20T15:52:00.228Z,56
2023-04-20T15:56:00.293Z,57
2023-04-20T16:00:00.398Z,57
2023-04-20T16:04:00.531Z,56
2023-04-20T16:08:00.260Z,56
2023-04-20T16:12:00.278Z,57
2023-04-20T16:16:00.273Z,57
2023-04-20T16:20:00.412Z,57
2023-04-20T16:24:00.389Z,57
2023-04-20T16:28:00.396Z,58
2023-04-20T16:32:00.416Z,58
2023-04-20T16:36:00.464Z,58
2023-04-20T16:40:00.411Z,58
2023-04-20T16:44:00.420Z,58
2023-04-20T16:48:00.456Z,57
2023-04-20T16:52:00.386Z,57
2023-04-20T16:56:00.406Z,57
2023-04-20T17:00:00.451Z,57
2023-04-20T17:04:00.643Z,57
2023-04-20T17:08:00.426Z,58
2023-04-20T17:12:00.400Z,58
2023-04-20T17:16:00.495Z,58
2023-04-20T17:20:00.403Z,58
2023-04-20T17:24:00.422Z,59
2023-04-20T17:28:00.394Z,59
2023-04-20T17:32:00.450Z,59
2023-04-20T17:36:00.400Z,59
2023-04-20T17:40:00.415Z,60
2023-04-20T17:44:00.426Z,61
2023-04-20T17:48:00.481Z,62
2023-04-20T17:52:00.390Z,62
2023-04-20T17:56:00.421Z,63
2023-04-20T18:00:00.395Z,63
2023-04-20T18:04:00.583Z,64
2023-04-20T18:08:00.401Z,65
2023-04-20T18:12:00.418Z,65
2023-04-20T18:16:00.469Z,66
2023-04-20T18:20:00.423Z,67
2023-04-20T18:24:00.423Z,67
2023-04-20T18:28:00.412Z,67
2023-04-20T18:32:00.485Z,67
2023-04-20T18:36:00.426Z,67
2023-04-20T18:40:00.414Z,68
2023-04-20T18:44:00.471Z,68
2023-04-20T18:48:00.501Z,69
2023-04-20T18:52:00.407Z,69
2023-04-20T18:56:00.419Z,69
2023-04-20T19:00:00.429Z,69
2023-04-20T19:04:00.657Z,70
2023-04-20T19:08:00.393Z,70
2023-04-20T19:12:00.403Z,70
2023-04-20T19:16:00.449Z,70
2023-04-20T19:20:00.982Z,71
2023-04-20T19:24:00.575Z,71
2023-04-20T19:28:00.575Z,71
2023-04-20T19:32:00.664Z,72
2023-04-20T19:36:00.563Z,72
2023-04-20T19:40:00.576Z,72
2023-04-20T19:44:00.568Z,73
2023-04-20T19:48:00.576Z,73
2023-04-20T19:52:00.577Z,73
2023-04-20T19:56:00.564Z,73
2023-04-20T20:00:00.595Z,73
2023-04-20T20:04:00.827Z,73
2023-04-20T20:08:00.575Z,73
2023-04-20T20:12:00.557Z,73
2023-04-20T20:16:00.644Z,73
2023-04-20T20:20:00.566Z,73
2023-04-20T20:24:00.589Z,73
2023-04-20T20:28:00.584Z,73
2023-04-20T20:32:00.555Z,73
2023-04-20T20:36:00.574Z,73
2023-04-20T20:40:00.562Z,73
2023-04-20T20:44:00.577Z,73
2023-04-20T20:48:00.626Z,74
2023-04-20T20:52:00.575Z,74
2023-04-20T20:56:00.569Z,74
2023-04-20T21:00:00.553Z,74
2023-04-20T21:04:00.702Z,74
2023-04-20T21:08:00.600Z,74
2023-04-20T21:12:00.565Z,74
2023-04-20T21:16:00.642Z,74
2023-04-20T21:20:00.586Z,74
2023-04-20T21:24:00.594Z,74
2023-04-20T21:28:00.562Z,75
2023-04-20T21:32:00.633Z,75
2023-04-20T21:36:00.573Z,75
2023-04-20T21:40:00.617Z,75
2023-04-20T21:44:00.553Z,75
2023-04-20T21:48:00.671Z,76
2023-04-20T21:52:00.575Z,76
2023-04-20T21:56:00.580Z,76
2023-04-20T22:00:00.570Z,76
2023-04-20T22:04:00.884Z,76
2023-04-20T22:08:00.570Z,76
2023-04-20T22:12:00.575Z,76
2023-04-20T22:16:00.635Z,76
2023-04-20T22:20:00.573Z,76
2023-04-20T22:24:00.570Z,76
2023-04-20T22:28:00.582Z,76
2023-04-20T22:32:00.579Z,76
2023-04-20T22:36:00.570Z,76
2023-04-20T22:40:00.599Z,76
2023-04-20T22:44:00.585Z,76
2023-04-20T22:48:00.593Z,76
2023-04-20T22:52:00.592Z,76
2023-04-20T22:56:00.574Z,76
2023-04-20T23:00:00.584Z,76
2023-04-20T23:04:00.846Z,76
2023-04-20T23:08:00.612Z,76
2023-04-20T23:12:00.596Z,77
2023-04-20T23:16:00.562Z,77
2023-04-20T23:20:00.586Z,77
2023-04-20T23:24:00.566Z,77
2023-04-20T23:28:00.562Z,77
2023-04-20T23:32:00.663Z,77
2023-04-20T23:36:00.593Z,78
2023-04-20T23:40:00.578Z,78
2023-04-20T23:44:00.633Z,78
2023-04-20T23:48:00.624Z,78
2023-04-20T23:52:00.589Z,78
2023-04-20T23:56:00.564Z,78
